Time;durP1;ratioP1;P1;durP2;ratioP2;P2;SDS_P1;SDS_P2;PMS_P1;PMS_P2;Temp;Humidity;BMP_temperature;BMP_pressure;BME280_temperature;BME280_humidity;BME280_pressure;Samples;Min_cycle;Max_cycle;Signal;HPM_P1;HPM_P2
2021/08/20 00:01:05;;;;;;;8.13;7.53;;;19.00;99.90;;;;;;5030669;28;20253;-67
2021/08/20 00:03:30;;;;;;;7.90;7.30;;;19.00;99.90;;;;;;5031742;28;20174;-67
2021/08/20 00:05:56;;;;;;;8.10;7.50;;;19.00;99.90;;;;;;5031174;28;20888;-67
2021/08/20 00:08:22;;;;;;;8.67;8.00;;;19.00;99.90;;;;;;5031624;28;20184;-67
2021/08/20 00:10:49;;;;;;;8.30;7.60;;;18.90;99.90;;;;;;5031116;28;20186;-67
2021/08/20 00:13:15;;;;;;;8.47;6.80;;;18.90;99.90;;;;;;5032481;28;20590;-66
2021/08/20 00:15:41;;;;;;;8.17;7.47;;;18.90;99.90;;;;;;5051824;28;20497;-67
2021/08/20 00:18:06;;;;;;;8.13;7.43;;;18.80;99.90;;;;;;5050965;28;20192;-67
2021/08/20 00:20:32;;;;;;;7.20;6.53;;;18.90;99.90;;;;;;5051759;28;20227;-67
2021/08/20 00:22:58;;;;;;;8.30;7.50;;;18.90;99.90;;;;;;5051242;28;20174;-67
2021/08/20 00:25:23;;;;;;;7.80;7.10;;;18.80;99.90;;;;;;5047657;28;20175;-66
2021/08/20 00:27:49;;;;;;;9.60;7.40;;;18.90;99.90;;;;;;5034186;28;20535;-67
2021/08/20 00:30:15;;;;;;;8.37;7.53;;;18.90;99.90;;;;;;5035773;28;20260;-66
2021/08/20 00:32:41;;;;;;;7.63;6.93;;;18.80;99.90;;;;;;5017890;28;20484;-67
2021/08/20 00:35:07;;;;;;;8.23;7.50;;;18.80;99.90;;;;;;5034626;28;20292;-67
2021/08/20 00:37:33;;;;;;;8.07;7.27;;;18.80;99.90;;;;;;5032913;28;20575;-67
2021/08/20 00:39:59;;;;;;;9.23;8.33;;;18.80;99.90;;;;;;5015130;28;20906;-67
2021/08/20 00:42:25;;;;;;;9.40;7.67;;;18.70;99.90;;;;;;5015603;28;20445;-67
2021/08/20 00:44:51;;;;;;;8.40;7.70;;;18.80;99.90;;;;;;5018530;28;20248;-67
2021/08/20 00:47:17;;;;;;;8.60;8.00;;;18.70;99.90;;;;;;5035491;28;20409;-67
2021/08/20 00:49:43;;;;;;;10.03;9.13;;;18.70;99.90;;;;;;5034694;28;20546;-67
2021/08/20 00:52:09;;;;;;;8.93;8.13;;;18.70;99.90;;;;;;5034379;28;20646;-67
2021/08/20 00:54:35;;;;;;;9.33;8.53;;;18.70;99.90;;;;;;5034512;28;20401;-67
2021/08/20 00:57:03;;;;;;;9.70;8.80;;;18.70;99.90;;;;;;5034090;28;20432;-67
2021/08/20 00:59:29;;;;;;;9.57;8.67;;;18.70;99.90;;;;;;5017315;28;20650;-67
2021/08/20 01:01:54;;;;;;;9.50;8.70;;;18.80;99.90;;;;;;5033963;28;20916;-67
2021/08/20 01:04:20;;;;;;;10.53;9.57;;;18.80;99.90;;;;;;5034912;28;20408;-67
2021/08/20 01:06:46;;;;;;;10.80;9.77;;;18.80;99.90;;;;;;5033011;28;20174;-74
2021/08/20 01:09:13;;;;;;;11.23;10.10;;;18.90;99.90;;;;;;5014460;28;20449;-67
2021/08/20 01:11:39;;;;;;;11.10;9.83;;;18.80;99.90;;;;;;5015331;28;20265;-67
2021/08/20 01:14:06;;;;;;;10.77;9.73;;;18.90;99.90;;;;;;4996925;28;20846;-67
2021/08/20 01:16:36;;;;;;;9.87;9.07;;;18.90;99.90;;;;;;5014699;28;20414;-67
2021/08/20 01:19:02;;;;;;;10.13;9.33;;;19.00;99.90;;;;;;5014183;28;20421;-67
2021/08/20 01:21:27;;;;;;;9.50;8.80;;;19.00;99.90;;;;;;5014887;28;20480;-67
2021/08/20 01:23:55;;;;;;;9.77;8.73;;;19.00;99.90;;;;;;5015141;28;20418;-67
2021/08/20 01:26:22;;;;;;;8.33;7.63;;;19.00;99.90;;;;;;5034892;28;20182;-67
2021/08/20 01:28:48;;;;;;;9.63;8.83;;;19.00;99.90;;;;;;5034104;28;20448;-74
2021/08/20 01:31:16;;;;;;;8.90;8.20;;;19.10;99.90;;;;;;5034165;28;20417;-66
2021/08/20 01:33:42;;;;;;;8.60;8.00;;;19.00;99.90;;;;;;5034402;28;20516;-67
2021/08/20 01:36:10;;;;;;;9.30;8.50;;;19.00;99.90;;;;;;5032954;28;20417;-67
2021/08/20 01:38:56;;;;;;;9.20;8.40;;;19.00;99.90;;;;;;5034014;28;20777;-67
2021/08/20 01:41:25;;;;;;;9.20;8.50;;;19.10;99.90;;;;;;5034573;28;20881;-67
2021/08/20 01:43:52;;;;;;;8.50;7.90;;;19.10;99.90;;;;;;5033289;28;20406;-73
2021/08/20 01:46:19;;;;;;;9.30;8.60;;;19.00;99.90;;;;;;5034184;28;20421;-66
2021/08/20 01:48:46;;;;;;;9.37;8.67;;;19.00;99.90;;;;;;5033259;28;20476;-67
2021/08/20 01:51:14;;;;;;;9.07;8.37;;;19.10;99.90;;;;;;5015655;28;20416;-66
2021/08/20 01:53:41;;;;;;;9.47;8.67;;;19.10;99.90;;;;;;5034061;28;20412;-67
2021/08/20 01:56:15;;;;;;;9.23;8.43;;;19.00;99.90;;;;;;5033152;28;20401;-67
2021/08/20 01:58:42;;;;;;;9.40;8.60;;;19.00;99.90;;;;;;5034099;28;20500;-67
2021/08/20 02:01:07;;;;;;;8.57;7.97;;;19.10;99.90;;;;;;5017071;28;20426;-67
2021/08/20 02:03:33;;;;;;;9.00;8.30;;;19.00;99.90;;;;;;5014183;28;20430;-67
2021/08/20 02:05:59;;;;;;;9.53;8.83;;;19.00;99.90;;;;;;5013244;28;20183;-67
2021/08/20 02:08:24;;;;;;;9.93;9.13;;;19.00;99.90;;;;;;5013976;28;20198;-67
2021/08/20 02:10:51;;;;;;;11.13;10.23;;;19.00;99.90;;;;;;5013693;28;20234;-73
2021/08/20 02:13:17;;;;;;;11.03;10.23;;;19.00;99.90;;;;;;5022372;28;20186;-67
2021/08/20 02:15:43;;;;;;;11.17;10.27;;;19.00;99.90;;;;;;5033965;28;20409;-67
2021/08/20 02:18:08;;;;;;;11.17;10.37;;;18.90;99.90;;;;;;5015060;28;20174;-67
2021/08/20 02:20:34;;;;;;;10.23;9.43;;;18.90;99.90;;;;;;5033584;28;20182;-67
2021/08/20 02:23:00;;;;;;;11.00;10.10;;;18.90;99.90;;;;;;5032886;28;20257;-67
2021/08/20 02:25:25;;;;;;;11.37;10.47;;;18.90;99.90;;;;;;5025159;28;20190;-67
2021/08/20 02:27:51;;;;;;;12.70;11.70;;;18.90;99.90;;;;;;5013329;28;20182;-73
2021/08/20 02:30:17;;;;;;;12.50;11.50;;;18.90;99.90;;;;;;5013371;28;20657;-67
2021/08/20 02:32:42;;;;;;;12.37;11.47;;;18.90;99.90;;;;;;5022901;28;20179;-67
2021/08/20 02:35:08;;;;;;;13.33;12.33;;;18.90;99.90;;;;;;5032515;28;20201;-67
2021/08/20 02:37:34;;;;;;;12.73;11.70;;;18.90;99.90;;;;;;5033073;28;20174;-66
2021/08/20 02:40:00;;;;;;;14.23;13.10;;;18.90;99.90;;;;;;5032339;28;20428;-67
2021/08/20 02:42:25;;;;;;;14.20;13.10;;;18.90;99.90;;;;;;5008269;28;20182;-67
2021/08/20 02:44:51;;;;;;;13.67;12.60;;;18.90;99.90;;;;;;5012971;28;20246;-73
2021/08/20 02:47:17;;;;;;;14.87;13.57;;;18.90;99.90;;;;;;4995161;28;20575;-67
2021/08/20 02:49:42;;;;;;;14.80;13.50;;;18.90;99.90;;;;;;5012676;28;20223;-67
2021/08/20 02:52:08;;;;;;;15.47;14.27;;;18.80;99.90;;;;;;4995038;28;20188;-67
2021/08/20 02:54:34;;;;;;;15.07;13.87;;;18.90;99.90;;;;;;5019716;28;20182;-67
2021/08/20 02:56:59;;;;;;;16.43;15.10;;;18.90;99.90;;;;;;5032174;28;20173;-67
2021/08/20 02:59:25;;;;;;;16.63;15.20;;;18.80;99.90;;;;;;5032837;28;20214;-67
2021/08/20 03:01:51;;;;;;;17.00;15.50;;;18.90;99.90;;;;;;5024965;28;20585;-67
2021/08/20 03:04:17;;;;;;;18.13;16.37;;;18.90;99.90;;;;;;5012165;28;20171;-67
2021/08/20 03:06:43;;;;;;;19.13;17.40;;;18.90;99.90;;;;;;5013229;28;20210;-67
2021/08/20 03:09:10;;;;;;;17.83;16.13;;;18.90;99.90;;;;;;5012073;28;20465;-67
2021/08/20 03:11:36;;;;;;;18.70;16.90;;;18.90;99.90;;;;;;5018963;28;20906;-66
2021/08/20 03:14:02;;;;;;;20.67;18.60;;;18.90;99.90;;;;;;5013984;28;20488;-67
2021/08/20 03:16:28;;;;;;;18.20;16.47;;;18.90;99.90;;;;;;5032782;28;20179;-67
2021/08/20 03:18:54;;;;;;;20.67;18.70;;;18.90;99.90;;;;;;5032422;28;20887;-72
2021/08/20 03:21:19;;;;;;;21.07;19.07;;;18.90;99.90;;;;;;5012504;28;20190;-67
2021/08/20 03:23:45;;;;;;;22.17;20.07;;;18.80;99.90;;;;;;5032184;28;20196;-66
2021/08/20 03:26:11;;;;;;;21.60;19.50;;;18.80;99.90;;;;;;5031616;28;20167;-67
2021/08/20 03:28:36;;;;;;;19.80;17.80;;;18.90;99.90;;;;;;5014523;28;20656;-66
2021/08/20 03:31:02;;;;;;;21.60;19.57;;;18.80;99.90;;;;;;5020596;28;20187;-67
2021/08/20 03:33:28;;;;;;;21.30;19.20;;;18.80;99.90;;;;;;5013081;28;20185;-67
2021/08/20 03:35:54;;;;;;;23.13;20.90;;;18.80;99.90;;;;;;5012661;28;20182;-66
2021/08/20 03:38:19;;;;;;;22.13;19.90;;;18.80;99.90;;;;;;4994307;28;20185;-66
2021/08/20 03:40:45;;;;;;;26.43;23.77;;;18.90;99.90;;;;;;5012229;28;20167;-66
2021/08/20 03:43:11;;;;;;;19.83;17.83;;;18.80;99.90;;;;;;5011841;28;20630;-66
2021/08/20 03:45:37;;;;;;;22.80;20.50;;;18.90;99.90;;;;;;5012268;28;20448;-66
2021/08/20 03:48:03;;;;;;;22.93;20.63;;;18.90;99.90;;;;;;5011244;28;20659;-66
2021/08/20 03:50:28;;;;;;;24.60;22.10;;;18.80;99.90;;;;;;5012033;28;20242;-66
2021/08/20 03:52:54;;;;;;;24.30;21.77;;;18.80;99.90;;;;;;5012250;28;20186;-66
2021/08/20 03:55:20;;;;;;;23.63;21.50;;;18.80;99.90;;;;;;5011775;28;20547;-66
2021/08/20 03:57:49;;;;;;;25.93;21.17;;;18.80;99.90;;;;;;5012412;28;20226;-66
2021/08/20 04:00:15;;;;;;;25.40;21.70;;;18.80;99.90;;;;;;5012306;28;20178;-66
2021/08/20 04:02:41;;;;;;;23.80;21.30;;;18.80;99.90;;;;;;5015748;28;20425;-66
2021/08/20 04:05:07;;;;;;;25.20;22.97;;;18.80;99.90;;;;;;5017452;28;20825;-66
2021/08/20 04:07:32;;;;;;;24.33;19.33;;;18.70;99.90;;;;;;5036125;28;20230;-66
2021/08/20 04:09:58;;;;;;;24.33;21.73;;;18.80;99.90;;;;;;5035479;28;20673;-73
2021/08/20 04:12:24;;;;;;;24.03;21.53;;;18.70;99.90;;;;;;5035613;28;20182;-66
2021/08/20 04:14:49;;;;;;;24.60;22.20;;;18.70;99.90;;;;;;5036014;28;20619;-66
2021/08/20 04:17:15;;;;;;;22.93;20.53;;;18.70;99.90;;;;;;5034381;28;20245;-66
2021/08/20 04:19:41;;;;;;;23.37;20.23;;;18.70;99.90;;;;;;5036005;28;20204;-66
2021/08/20 04:22:06;;;;;;;26.47;23.77;;;18.70;99.90;;;;;;5034642;28;20194;-66
2021/08/20 04:24:32;;;;;;;25.77;22.07;;;18.70;99.90;;;;;;5017686;28;20177;-67
2021/08/20 04:26:58;;;;;;;22.50;20.30;;;18.70;99.90;;;;;;5034676;28;20585;-74
2021/08/20 04:29:23;;;;;;;24.73;21.90;;;18.70;99.90;;;;;;5035112;28;20271;-66
2021/08/20 04:31:49;;;;;;;23.87;21.27;;;18.70;99.90;;;;;;5035479;28;20185;-66
2021/08/20 04:34:15;;;;;;;27.00;24.20;;;18.70;99.90;;;;;;5034477;28;20209;-66
2021/08/20 04:36:41;;;;;;;26.87;24.00;;;18.70;99.90;;;;;;5035218;28;20167;-66
2021/08/20 04:39:06;;;;;;;25.13;22.63;;;18.70;99.90;;;;;;5029566;28;20588;-67
2021/08/20 04:41:32;;;;;;;30.40;22.10;;;18.60;99.90;;;;;;5015418;28;20214;-66
2021/08/20 04:43:58;;;;;;;28.00;24.57;;;18.60;99.90;;;;;;5015347;28;20630;-66
2021/08/20 04:46:24;;;;;;;26.80;23.90;;;18.60;99.90;;;;;;5014925;28;20543;-66
2021/08/20 04:48:50;;;;;;;24.20;21.60;;;18.60;99.90;;;;;;4997705;28;20313;-66
2021/08/20 04:51:16;;;;;;;24.90;22.27;;;18.60;99.90;;;;;;5021593;28;20528;-66
2021/08/20 04:53:42;;;;;;;27.70;24.10;;;18.60;99.90;;;;;;5017084;28;20421;-66
2021/08/20 04:56:07;;;;;;;28.00;25.00;;;18.60;99.90;;;;;;5034252;28;20209;-66
2021/08/20 04:58:35;;;;;;;30.87;26.33;;;18.60;99.90;;;;;;5034663;28;20217;-66
2021/08/20 05:01:02;;;;;;;26.20;23.13;;;18.60;99.90;;;;;;5030966;28;20166;-68
2021/08/20 05:03:28;;;;;;;28.53;23.97;;;18.60;99.90;;;;;;5035395;28;20413;-66
2021/08/20 05:05:54;;;;;;;28.33;24.80;;;18.60;99.90;;;;;;5035347;28;20447;-66
2021/08/20 05:08:19;;;;;;;29.80;23.50;;;18.60;99.90;;;;;;5034675;28;20239;-66
2021/08/20 05:10:45;;;;;;;29.50;24.10;;;18.60;99.90;;;;;;5027494;28;20650;-66
2021/08/20 05:13:11;;;;;;;26.63;21.67;;;18.60;99.90;;;;;;5014160;28;20175;-66
2021/08/20 05:15:37;;;;;;;29.87;22.07;;;18.60;99.90;;;;;;5015361;28;20190;-66
2021/08/20 05:18:02;;;;;;;27.30;23.67;;;18.60;99.90;;;;;;5014603;28;20182;-67
2021/08/20 05:20:29;;;;;;;25.30;22.00;;;18.70;99.90;;;;;;5015255;28;20270;-66
2021/08/20 05:22:56;;;;;;;25.93;22.07;;;18.70;99.90;;;;;;5024886;28;20249;-66
2021/08/20 05:25:23;;;;;;;25.33;22.60;;;18.70;99.90;;;;;;5034320;28;20443;-66
2021/08/20 05:27:50;;;;;;;23.50;21.03;;;18.70;99.90;;;;;;5034698;28;20405;-66
2021/08/20 05:30:17;;;;;;;26.63;23.73;;;18.70;99.90;;;;;;5032471;28;20454;-66
2021/08/20 05:32:43;;;;;;;28.87;24.00;;;18.80;99.90;;;;;;5031193;28;20417;-66
2021/08/20 05:35:11;;;;;;;26.30;23.00;;;18.80;99.90;;;;;;5054283;28;20478;-67
2021/08/20 05:37:37;;;;;;;25.27;22.47;;;18.90;99.90;;;;;;5054189;28;20413;-66
2021/08/20 05:40:06;;;;;;;24.17;21.57;;;18.90;99.90;;;;;;5053843;28;20408;-73
2021/08/20 05:42:32;;;;;;;23.10;20.70;;;18.90;99.90;;;;;;5036218;28;20499;-67
2021/08/20 05:44:57;;;;;;;23.57;21.17;;;18.90;99.90;;;;;;5054069;28;20507;-66
2021/08/20 05:47:23;;;;;;;22.20;19.80;;;18.90;99.90;;;;;;5053610;28;20181;-67
2021/08/20 05:49:50;;;;;;;24.80;22.10;;;18.90;99.90;;;;;;5048922;28;20221;-66
2021/08/20 05:52:15;;;;;;;20.70;18.50;;;18.90;99.90;;;;;;5033551;28;20232;-66
2021/08/20 05:54:41;;;;;;;22.73;20.33;;;18.90;99.90;;;;;;5034260;28;20405;-66
2021/08/20 05:57:07;;;;;;;20.00;17.90;;;18.90;99.90;;;;;;5027077;28;20247;-66
2021/08/20 05:59:33;;;;;;;19.67;17.67;;;18.90;99.90;;;;;;5014049;28;20186;-67
2021/08/20 06:01:58;;;;;;;21.03;18.93;;;18.90;99.90;;;;;;5015132;28;20410;-66
2021/08/20 06:04:24;;;;;;;22.50;19.23;;;18.90;99.90;;;;;;5033625;28;20661;-66
2021/08/20 06:06:50;;;;;;;25.73;21.80;;;19.00;99.90;;;;;;5027766;28;20250;-66
2021/08/20 06:09:16;;;;;;;17.53;15.73;;;19.00;99.90;;;;;;5013029;28;20297;-66
2021/08/20 06:11:41;;;;;;;20.77;18.60;;;19.00;99.90;;;;;;5029362;28;20227;-66
2021/08/20 06:14:07;;;;;;;20.27;18.17;;;19.10;99.90;;;;;;5037734;28;20426;-66
2021/08/20 06:16:33;;;;;;;26.37;18.40;;;19.10;99.90;;;;;;5050501;28;20228;-68
2021/08/20 06:18:58;;;;;;;18.33;16.43;;;19.00;99.90;;;;;;5052654;28;20205;-66
2021/08/20 06:21:24;;;;;;;22.80;20.37;;;19.00;99.90;;;;;;5031282;28;20190;-67
2021/08/20 06:23:50;;;;;;;18.70;16.30;;;19.00;99.90;;;;;;5052233;28;20174;-66
2021/08/20 06:26:16;;;;;;;17.47;15.67;;;19.10;99.90;;;;;;5052889;28;20431;-67
2021/08/20 06:28:41;;;;;;;15.70;14.03;;;19.10;99.90;;;;;;5053667;28;20248;-67
2021/08/20 06:31:07;;;;;;;16.33;14.67;;;19.20;99.90;;;;;;5052754;28;20169;-67
2021/08/20 06:33:37;;;;;;;17.90;16.00;;;19.30;99.90;;;;;;5035505;28;20649;-67
2021/08/20 06:36:03;;;;;;;17.87;15.30;;;19.50;99.90;;;;;;5033622;28;20170;-67
2021/08/20 06:38:28;;;;;;;15.60;14.03;;;19.70;99.90;;;;;;5033012;28;20487;-67
2021/08/20 06:40:54;;;;;;;16.93;14.97;;;19.80;99.90;;;;;;5033863;28;20170;-67
2021/08/20 06:43:20;;;;;;;16.57;14.40;;;19.90;99.90;;;;;;5032857;28;20607;-67
2021/08/20 06:45:54;;;;;;;17.30;15.67;;;20.10;99.90;;;;;;5110403;27;20519;-69
2021/08/20 06:48:20;;;;;;;16.07;14.30;;;20.10;99.90;;;;;;5089503;28;20452;-68
2021/08/20 06:50:45;;;;;;;18.10;16.27;;;20.10;99.90;;;;;;5089739;28;20172;-68
2021/08/20 06:53:12;;;;;;;22.53;19.30;;;20.20;99.90;;;;;;5087553;28;20171;-69
2021/08/20 06:55:38;;;;;;;16.60;14.97;;;20.20;99.90;;;;;;5069086;28;20176;-69
2021/08/20 06:58:04;;;;;;;16.30;14.60;;;20.30;99.90;;;;;;5068529;28;20460;-66
2021/08/20 07:00:30;;;;;;;17.27;15.00;;;20.30;99.90;;;;;;5068907;28;20755;-66
2021/08/20 07:02:56;;;;;;;14.87;13.27;;;20.40;99.90;;;;;;5068923;28;20502;-66
2021/08/20 07:05:22;;;;;;;16.00;13.50;;;20.50;99.90;;;;;;5068064;28;20637;-66
2021/08/20 07:07:47;;;;;;;14.93;12.63;;;20.60;99.90;;;;;;5068753;28;20185;-66
2021/08/20 07:10:16;;;;;;;16.60;14.63;;;20.60;99.90;;;;;;5067823;28;20494;-66
2021/08/20 07:12:43;;;;;;;14.50;12.77;;;20.70;99.90;;;;;;5068927;28;20415;-65
2021/08/20 07:15:11;;;;;;;15.03;12.90;;;20.80;99.90;;;;;;5080288;28;20431;-65
2021/08/20 07:17:37;;;;;;;16.40;13.67;;;20.70;99.90;;;;;;5089027;28;20417;-65
2021/08/20 07:20:04;;;;;;;15.10;13.60;;;20.70;99.90;;;;;;5089217;28;20448;-65
2021/08/20 07:22:36;;;;;;;16.80;13.60;;;20.70;99.90;;;;;;5088273;28;20406;-65
2021/08/20 07:25:02;;;;;;;16.80;15.10;;;20.70;99.90;;;;;;5089189;28;20439;-66
2021/08/20 07:27:28;;;;;;;17.70;15.57;;;20.70;99.90;;;;;;5088788;28;20407;-65
2021/08/20 07:29:53;;;;;;;17.33;15.47;;;20.70;99.90;;;;;;5077260;28;20177;-68
2021/08/20 07:32:19;;;;;;;15.03;13.53;;;20.60;99.90;;;;;;5087639;28;20647;-68
2021/08/20 07:34:45;;;;;;;18.07;16.20;;;20.60;99.90;;;;;;5085833;28;20258;-68
2021/08/20 07:37:11;;;;;;;15.87;14.37;;;20.60;99.90;;;;;;5068263;28;20768;-68
2021/08/20 07:39:38;;;;;;;19.77;16.97;;;20.50;99.90;;;;;;5068621;28;20173;-68
2021/08/20 07:42:05;;;;;;;18.20;16.00;;;20.40;99.90;;;;;;5050902;28;20240;-68
2021/08/20 07:44:32;;;;;;;17.63;15.93;;;20.30;99.90;;;;;;5059169;28;20507;-67
2021/08/20 07:46:58;;;;;;;19.17;17.17;;;20.30;99.90;;;;;;5053452;28;21007;-68
2021/08/20 07:49:25;;;;;;;18.37;16.47;;;20.20;99.90;;;;;;5068100;28;20450;-68
2021/08/20 07:51:50;;;;;;;20.60;17.57;;;20.20;99.90;;;;;;5045201;28;20416;-67
2021/08/20 07:54:16;;;;;;;21.47;19.00;;;20.10;99.90;;;;;;5057995;28;20420;-67
2021/08/20 07:56:42;;;;;;;20.13;18.00;;;20.10;99.90;;;;;;5047557;28;20182;-68
2021/08/20 07:59:08;;;;;;;19.43;17.43;;;20.10;99.90;;;;;;5035043;28;20428;-74
2021/08/20 08:01:34;;;;;;;20.87;18.33;;;20.10;99.90;;;;;;5043156;28;20223;-67
2021/08/20 08:04:00;;;;;;;19.50;17.30;;;20.00;99.90;;;;;;5046385;28;20202;-67
2021/08/20 08:06:27;;;;;;;19.27;16.80;;;20.00;99.90;;;;;;5034616;28;20424;-65
2021/08/20 08:08:53;;;;;;;21.77;17.10;;;20.00;99.90;;;;;;5046691;28;20657;-65
2021/08/20 08:11:19;;;;;;;18.90;16.43;;;20.00;99.90;;;;;;5054353;28;20400;-67
2021/08/20 08:13:45;;;;;;;20.17;17.10;;;20.00;99.90;;;;;;5054906;28;20415;-67
2021/08/20 08:16:11;;;;;;;24.37;19.27;;;20.00;99.90;;;;;;5054339;28;20484;-67
2021/08/20 08:18:37;;;;;;;19.10;16.20;;;20.00;99.90;;;;;;5054958;28;20248;-67
2021/08/20 08:21:03;;;;;;;20.07;17.90;;;20.00;99.90;;;;;;5043302;28;20413;-67
2021/08/20 08:23:30;;;;;;;17.90;15.80;;;20.00;99.90;;;;;;5033935;28;20757;-67
2021/08/20 08:25:56;;;;;;;18.63;15.90;;;20.00;99.90;;;;;;5039222;28;20421;-67
2021/08/20 08:28:22;;;;;;;18.07;15.70;;;20.00;99.90;;;;;;5033903;28;20512;-67
2021/08/20 08:30:49;;;;;;;20.97;16.80;;;20.10;99.90;;;;;;5034354;28;20499;-67
2021/08/20 08:33:17;;;;;;;21.10;16.87;;;20.10;99.90;;;;;;5033856;28;20417;-68
2021/08/20 08:35:43;;;;;;;17.67;15.87;;;20.10;99.90;;;;;;5038767;28;20518;-67
2021/08/20 08:38:12;;;;;;;18.63;15.27;;;20.10;99.90;;;;;;5053022;28;20809;-67
2021/08/20 08:40:43;;;;;;;17.63;15.73;;;20.20;99.90;;;;;;5054861;28;20457;-67
2021/08/20 08:43:10;;;;;;;15.97;14.37;;;20.30;99.90;;;;;;5054467;28;20392;-67
2021/08/20 08:45:36;;;;;;;23.00;17.37;;;20.30;99.90;;;;;;5067533;28;20479;-67
2021/08/20 08:48:05;;;;;;;17.73;15.83;;;20.30;99.90;;;;;;5054456;28;20412;-67
2021/08/20 08:50:31;;;;;;;20.00;15.97;;;20.40;99.90;;;;;;5053821;28;20415;-67
2021/08/20 08:52:57;;;;;;;15.40;13.80;;;20.50;99.90;;;;;;5054386;28;20771;-67
2021/08/20 08:55:23;;;;;;;15.77;14.07;;;20.60;99.90;;;;;;5053732;28;20412;-67
2021/08/20 08:57:49;;;;;;;17.27;14.80;;;20.70;99.90;;;;;;5053125;28;20560;-65
2021/08/20 09:00:31;;;;;;;17.40;16.00;;;20.90;99.90;;;;;;5053920;28;20482;-65
2021/08/20 09:02:57;;;;;;;16.10;14.50;;;21.10;99.90;;;;;;5053856;28;20170;-64
2021/08/20 09:05:23;;;;;;;14.93;13.40;;;21.20;99.90;;;;;;5053474;28;20451;-64
2021/08/20 09:07:53;;;;;;;17.70;16.10;;;21.20;99.90;;;;;;5053070;28;20412;-64
2021/08/20 09:10:22;;;;;;;15.83;14.13;;;21.20;99.90;;;;;;5053404;28;20178;-65
2021/08/20 09:12:59;;;;;;;14.60;13.30;;;21.30;99.90;;;;;;5054055;28;20415;-65
2021/08/20 09:15:30;;;;;;;13.83;12.60;;;21.30;99.90;;;;;;5052850;28;20950;-65
2021/08/20 09:17:57;;;;;;;12.77;11.63;;;21.40;99.90;;;;;;5053588;28;20397;-64
2021/08/20 09:20:29;;;;;;;12.60;11.53;;;21.40;99.90;;;;;;5053183;28;20436;-64
2021/08/20 09:22:58;;;;;;;13.40;12.20;;;21.50;99.90;;;;;;5052622;28;20401;-65
2021/08/20 09:25:31;;;;;;;13.00;11.80;;;21.50;99.90;;;;;;5053099;28;20448;-65
2021/08/20 09:28:19;;;;;;;14.80;13.60;;;21.60;99.90;;;;;;5053713;28;20825;-65
2021/08/20 09:31:12;;;;;;;13.07;11.87;;;21.60;99.90;;;;;;5053663;28;20404;-64
2021/08/20 09:33:43;;;;;;;12.77;11.60;;;21.60;99.90;;;;;;5049581;28;20515;-64
2021/08/20 09:36:20;;;;;;;13.57;11.83;;;21.60;99.90;;;;;;5053494;28;20818;-64
2021/08/20 09:38:55;;;;;;;13.20;11.90;;;21.60;99.70;;;;;;5053581;28;20852;-65
2021/08/20 09:41:32;;;;;;;11.00;10.10;;;21.60;99.90;;;;;;5052905;28;20416;-65
2021/08/20 09:44:03;;;;;;;11.97;10.97;;;21.50;99.90;;;;;;5048734;28;20488;-64
2021/08/20 09:46:43;;;;;;;12.87;11.50;;;21.50;99.90;;;;;;5032919;28;20405;-64
2021/08/20 09:49:13;;;;;;;12.33;11.20;;;21.50;99.90;;;;;;5033022;28;20394;-64
2021/08/20 09:51:45;;;;;;;12.13;11.13;;;21.70;99.90;;;;;;5032956;28;20386;-64
2021/08/20 09:54:23;;;;;;;12.40;11.30;;;21.70;99.90;;;;;;5033227;28;20426;-64
2021/08/20 09:56:50;;;;;;;12.53;11.40;;;21.70;99.70;;;;;;5033192;28;20404;-65
2021/08/20 09:59:17;;;;;;;11.57;10.47;;;21.70;99.10;;;;;;5032806;28;20413;-64
2021/08/20 10:01:46;;;;;;;11.40;10.30;;;21.70;98.70;;;;;;5032811;28;20826;-64
2021/08/20 10:04:16;;;;;;;11.70;10.60;;;21.70;99.30;;;;;;5032334;28;20531;-64
2021/08/20 10:06:48;;;;;;;12.80;10.53;;;21.90;99.90;;;;;;5032312;28;20386;-64
2021/08/20 10:09:16;;;;;;;11.10;10.17;;;22.10;99.50;;;;;;5032842;28;20389;-64
2021/08/20 10:11:46;;;;;;;10.83;9.93;;;22.30;99.00;;;;;;5032916;28;20408;-64
2021/08/20 10:14:13;;;;;;;10.93;10.13;;;22.50;97.30;;;;;;5033015;28;20515;-64
2021/08/20 10:16:40;;;;;;;10.40;9.60;;;22.70;97.50;;;;;;5032229;28;20850;-64
2021/08/20 10:19:08;;;;;;;11.70;10.70;;;22.70;96.80;;;;;;5032612;28;20415;-64
2021/08/20 10:21:37;;;;;;;11.23;10.33;;;22.80;97.20;;;;;;5032262;28;20429;-64
2021/08/20 10:24:05;;;;;;;11.07;9.90;;;22.80;97.30;;;;;;5032696;28;20475;-64
2021/08/20 10:26:32;;;;;;;11.10;10.27;;;22.90;97.10;;;;;;5032138;28;20500;-65
2021/08/20 10:29:00;;;;;;;11.27;10.37;;;22.90;96.50;;;;;;5032668;28;20448;-64
2021/08/20 10:31:26;;;;;;;9.93;9.17;;;23.10;97.10;;;;;;5032003;28;20504;-65
2021/08/20 10:33:52;;;;;;;9.50;8.60;;;23.20;96.80;;;;;;5032660;28;20413;-65
2021/08/20 10:36:38;;;;;;;11.20;10.20;;;23.30;95.90;;;;;;5032007;28;20467;-65
2021/08/20 10:39:05;;;;;;;9.73;9.03;;;23.30;95.70;;;;;;5032779;28;20398;-64
2021/08/20 10:41:31;;;;;;;11.03;10.10;;;23.40;96.00;;;;;;5031613;28;20777;-64
2021/08/20 10:44:15;;;;;;;9.77;9.07;;;23.40;96.50;;;;;;5032076;28;20943;-64
2021/08/20 10:46:42;;;;;;;11.13;8.90;;;23.50;96.90;;;;;;5031820;28;20478;-67
2021/08/20 10:49:11;;;;;;;8.90;8.30;;;23.50;95.70;;;;;;5031979;28;20988;-67
2021/08/20 10:51:51;;;;;;;8.50;7.90;;;23.50;95.00;;;;;;5030973;28;20486;-67
2021/08/20 10:54:26;;;;;;;8.40;7.80;;;23.60;95.70;;;;;;5031969;28;20447;-67
2021/08/20 10:56:52;;;;;;;9.47;8.70;;;23.60;95.40;;;;;;5032447;28;20547;-67
2021/08/20 10:59:43;;;;;;;9.03;8.43;;;23.70;95.50;;;;;;5032413;28;20951;-67
2021/08/20 11:02:19;;;;;;;9.40;8.70;;;23.80;95.50;;;;;;5020912;28;20428;-67
2021/08/20 11:05:14;;;;;;;8.50;7.90;;;23.90;94.00;;;;;;5032167;28;20670;-67
2021/08/20 11:07:42;;;;;;;8.00;7.30;;;23.90;93.20;;;;;;5031662;28;20512;-67
2021/08/20 11:10:08;;;;;;;8.60;8.00;;;23.90;93.10;;;;;;5014582;28;20830;-67
2021/08/20 11:12:53;;;;;;;8.30;7.80;;;23.80;93.40;;;;;;5031609;28;20417;-67
2021/08/20 11:15:21;;;;;;;8.67;8.07;;;23.70;93.70;;;;;;5032309;28;20182;-67
2021/08/20 11:17:48;;;;;;;7.47;7.00;;;23.60;93.90;;;;;;5032241;28;20436;-67
2021/08/20 11:20:17;;;;;;;7.57;7.07;;;23.50;94.30;;;;;;5032177;28;20405;-67
2021/08/20 11:22:43;;;;;;;8.20;7.43;;;23.50;94.20;;;;;;5031625;28;20406;-64
2021/08/20 11:25:15;;;;;;;7.50;7.00;;;23.50;95.00;;;;;;5032076;28;20456;-64
2021/08/20 11:27:57;;;;;;;8.13;7.43;;;23.60;95.90;;;;;;5031643;28;20190;-64
2021/08/20 11:30:23;;;;;;;9.23;8.60;;;23.60;94.30;;;;;;5031603;28;20952;-67
2021/08/20 11:32:48;;;;;;;8.10;7.60;;;23.60;94.40;;;;;;5035875;28;20397;-67
2021/08/20 11:35:32;;;;;;;9.47;8.67;;;23.50;94.50;;;;;;5035855;28;20197;-67
2021/08/20 11:37:58;;;;;;;10.47;9.67;;;23.30;94.90;;;;;;5035907;28;20162;-67
2021/08/20 11:40:24;;;;;;;11.10;10.10;;;23.30;95.80;;;;;;5035303;28;20409;-67
2021/08/20 11:43:10;;;;;;;12.90;11.90;;;23.20;95.70;;;;;;5035367;28;20182;-67
2021/08/20 11:45:37;;;;;;;12.10;11.10;;;23.10;95.80;;;;;;5034624;28;20237;-65
2021/08/20 11:48:03;;;;;;;10.47;9.57;;;22.90;96.40;;;;;;5035578;28;20425;-64
2021/08/20 11:50:31;;;;;;;11.60;10.70;;;22.80;97.00;;;;;;5034559;28;20412;-65
2021/08/20 11:52:58;;;;;;;10.10;9.40;;;22.70;97.60;;;;;;5035528;28;20401;-64
2021/08/20 11:55:25;;;;;;;8.73;8.13;;;22.60;98.10;;;;;;5034887;28;20408;-65
2021/08/20 11:57:51;;;;;;;7.33;6.83;;;22.30;99.00;;;;;;5035030;28;20470;-64
2021/08/20 12:00:17;;;;;;;8.03;7.53;;;22.00;99.90;;;;;;5035084;28;20936;-65
2021/08/20 12:02:43;;;;;;;6.90;6.50;;;21.90;99.90;;;;;;5034963;28;20249;-65
2021/08/20 12:05:16;;;;;;;5.70;5.40;;;21.90;99.90;;;;;;5035061;28;20781;-64
2021/08/20 12:07:42;;;;;;;5.67;5.37;;;21.70;99.90;;;;;;4999936;28;20942;-64
2021/08/20 12:10:11;;;;;;;7.13;6.73;;;21.60;99.90;;;;;;5035126;28;20472;-64
2021/08/20 12:12:44;;;;;;;7.33;6.83;;;21.60;99.90;;;;;;5034092;28;20402;-66
2021/08/20 12:15:12;;;;;;;8.60;7.90;;;21.60;99.90;;;;;;5034945;28;20417;-67
2021/08/20 12:17:38;;;;;;;9.10;8.40;;;21.60;99.90;;;;;;5034348;28;20431;-67
2021/08/20 12:20:24;;;;;;;9.23;8.53;;;21.60;99.90;;;;;;5035028;28;20407;-67
2021/08/20 12:22:50;;;;;;;11.10;10.07;;;21.50;99.90;;;;;;5035061;28;20413;-67
2021/08/20 12:25:24;;;;;;;9.93;9.07;;;21.40;99.90;;;;;;5034906;28;20452;-67
2021/08/20 12:27:51;;;;;;;9.70;9.00;;;21.40;99.90;;;;;;5034921;28;20760;-67
2021/08/20 12:30:22;;;;;;;10.10;9.30;;;21.40;99.90;;;;;;5034720;28;20543;-67
2021/08/20 12:32:57;;;;;;;9.27;8.57;;;21.50;99.90;;;;;;5034250;28;20386;-67
2021/08/20 12:35:25;;;;;;;7.10;6.60;;;21.50;99.90;;;;;;5034766;28;20502;-67